Observation data for Seminole on 11/16/2019      Previous  Date       Current Mesonet Observations  Soil Data  Daily Summary Page  Observations in Plain Language
KSM1 160600Z 18006KT 06/M01 A3019 RMK A01 T00581007  RH  064%=      5-min Rain = 0
KSM1 160605Z 18006KT 06/M01 A3018 RMK A01 T00571007  RH  064%=      5-min Rain = 0
KSM1 160610Z 18006KT 06/M01 A3018 RMK A01 T00551007  RH  065%=      5-min Rain = 0
KSM1 160615Z 18006KT 05/M01 A3018 RMK A01 T00541007  RH  065%=      5-min Rain = 0
KSM1 160620Z 18006KT 05/M01 A3018 RMK A01 T00541006  RH  066%=      5-min Rain = 0
KSM1 160625Z 18006KT 05/M01 A3018 RMK A01 T00541006  RH  066%=      5-min Rain = 0
KSM1 160630Z 18005KT 05/M01 A3018 RMK A01 T00541006  RH  066%=      5-min Rain = 0
KSM1 160635Z 18005KT 05/M01 A3018 RMK A01 T00541005  RH  066%=      5-min Rain = 0
KSM1 160640Z 18006KT 06/M01 A3018 RMK A01 T00551005  RH  066%=      5-min Rain = 0
KSM1 160645Z 18006KT 06/M01 A3018 RMK A01 T00581005  RH  065%=      5-min Rain = 0
KSM1 160650Z 18007KT 06/M01 A3017 RMK A01 T00591005  RH  064%=      5-min Rain = 0
KSM1 160655Z 18006KT 06/M01 A3017 RMK A01 T00601005  RH  064%=      5-min Rain = 0
KSM1 160700Z 18007KT 06/M01 A3017 RMK A01 T00601005  RH  064%=      5-min Rain = 0
KSM1 160705Z 18008KT 06/M01 A3017 RMK A01 T00611005  RH  064%=      5-min Rain = 0
KSM1 160710Z 18007KT 06/M00 A3017 RMK A01 T00601004  RH  064%=      5-min Rain = 0
KSM1 160715Z 18006KT 06/M00 A3017 RMK A01 T00581004  RH  065%=      5-min Rain = 0
KSM1 160720Z 19005KT 06/M01 A3017 RMK A01 T00561005  RH  065%=      5-min Rain = 0
KSM1 160725Z 19006KT 06/M01 A3017 RMK A01 T00551005  RH  066%=      5-min Rain = 0
KSM1 160730Z 19006KT 05/M01 A3016 RMK A01 T00541005  RH  067%=      5-min Rain = 0
KSM1 160735Z 19005KT 05/M00 A3016 RMK A01 T00531004  RH  067%=      5-min Rain = 0
KSM1 160740Z 18005KT 05/M00 A3016 RMK A01 T00511004  RH  068%=      5-min Rain = 0
KSM1 160745Z 18005KT 05/M00 A3016 RMK A01 T00501004  RH  069%=      5-min Rain = 0
KSM1 160750Z 18004KT 05/M00 A3016 RMK A01 T00491004  RH  069%=      5-min Rain = 0
KSM1 160755Z 18004KT 05/M01 A3016 RMK A01 T00471005  RH  070%=      5-min Rain = 0
KSM1 160800Z 17004KT 05/M01 A3016 RMK A01 T00451005  RH  071%=      5-min Rain = 0
KSM1 160805Z 17003KT 04/M01 A3016 RMK A01 T00441005  RH  071%=      5-min Rain = 0
KSM1 160810Z 16004KT 04/M01 A3016 RMK A01 T00431005  RH  072%=      5-min Rain = 0
KSM1 160815Z 17004KT 04/M01 A3015 RMK A01 T00411005  RH  073%=      5-min Rain = 0
KSM1 160820Z 17004KT 04/M01 A3015 RMK A01 T00391006  RH  073%=      5-min Rain = 0
KSM1 160825Z 17004KT 04/M01 A3015 RMK A01 T00381006  RH  074%=      5-min Rain = 0
KSM1 160830Z 18004KT 04/M01 A3015 RMK A01 T00361006  RH  075%=      5-min Rain = 0
KSM1 160835Z 18004KT 04/M01 A3015 RMK A01 T00361006  RH  075%=      5-min Rain = 0
KSM1 160840Z 17005KT 04/M01 A3015 RMK A01 T00361005  RH  075%=      5-min Rain = 0
KSM1 160845Z 18005KT 04/M01 A3015 RMK A01 T00361005  RH  075%=      5-min Rain = 0
KSM1 160850Z 18004KT 04/M01 A3015 RMK A01 T00361005  RH  075%=      5-min Rain = 0
KSM1 160855Z 18005KT 04/M00 A3015 RMK A01 T00361004  RH  076%=      5-min Rain = 0
KSM1 160900Z 18005KT 04/M00 A3015 RMK A01 T00381003  RH  075%=      5-min Rain = 0
KSM1 160905Z 18005KT 04/M00 A3015 RMK A01 T00391003  RH  075%=      5-min Rain = 0
KSM1 160910Z 18005KT 04/M00 A3014 RMK A01 T00401003  RH  075%=      5-min Rain = 0
KSM1 160915Z 18005KT 04/M00 A3014 RMK A01 T00391003  RH  075%=      5-min Rain = 0
KSM1 160920Z 18005KT 04/M00 A3014 RMK A01 T00381003  RH  075%=      5-min Rain = 0
KSM1 160925Z 19005KT 04/M00 A3014 RMK A01 T00371003  RH  076%=      5-min Rain = 0
KSM1 160930Z 18005KT 04/M00 A3014 RMK A01 T00381002  RH  076%=      5-min Rain = 0
KSM1 160935Z 19005KT 04/M00 A3014 RMK A01 T00391002  RH  075%=      5-min Rain = 0
KSM1 160940Z 19005KT 04/M00 A3014 RMK A01 T00401002  RH  075%=      5-min Rain = 0
KSM1 160945Z 20005KT 04/M00 A3014 RMK A01 T00401002  RH  075%=      5-min Rain = 0
KSM1 160950Z 20005KT 04/M00 A3014 RMK A01 T00401002  RH  075%=      5-min Rain = 0
KSM1 160955Z 20005KT 04/M00 A3014 RMK A01 T00401002  RH  075%=      5-min Rain = 0
KSM1 161000Z 20004KT 04/M00 A3014 RMK A01 T00391003  RH  075%=      5-min Rain = 0
KSM1 161005Z 20005KT 04/M00 A3013 RMK A01 T00381003  RH  076%=      5-min Rain = 0
KSM1 161010Z 20004KT 04/M00 A3013 RMK A01 T00381003  RH  076%=      5-min Rain = 0
KSM1 161015Z 20005KT 04/M00 A3013 RMK A01 T00381002  RH  076%=      5-min Rain = 0
KSM1 161020Z 21005KT 04/M00 A3013 RMK A01 T00401002  RH  075%=      5-min Rain = 0
KSM1 161025Z 21005KT 04/M00 A3013 RMK A01 T00421001  RH  074%=      5-min Rain = 0
KSM1 161030Z 21005KT 04/M00 A3013 RMK A01 T00431001  RH  074%=      5-min Rain = 0
KSM1 161035Z 21005KT 04/M00 A3013 RMK A01 T00431002  RH  074%=      5-min Rain = 0
KSM1 161040Z 21005KT 04/M00 A3013 RMK A01 T00431002  RH  073%=      5-min Rain = 0
KSM1 161045Z 22004KT 04/M00 A3013 RMK A01 T00411002  RH  074%=      5-min Rain = 0
KSM1 161050Z 22004KT 04/M00 A3012 RMK A01 T00401003  RH  074%=      5-min Rain = 0
KSM1 161055Z 23004KT 04/M00 A3012 RMK A01 T00381004  RH  075%=      5-min Rain = 0
KSM1 161100Z 23003KT 04/M01 A3012 RMK A01 T00351005  RH  076%=      5-min Rain = 0
KSM1 161105Z 22003KT 03/M01 A3012 RMK A01 T00321005  RH  077%=      5-min Rain = 0
KSM1 161110Z 22002KT 03/M01 A3012 RMK A01 T00311005  RH  078%=      5-min Rain = 0
KSM1 161115Z 22002KT 03/M01 A3012 RMK A01 T00301005  RH  078%=      5-min Rain = 0
KSM1 161120Z 22002KT 03/M01 A3012 RMK A01 T00271009  RH  078%=      5-min Rain = 0
KSM1 161125Z 22001KT 02/M01 A3012 RMK A01 T00231010  RH  079%=      5-min Rain = 0
KSM1 161130Z 22001KT 02/M01 A3012 RMK A01 T00221008  RH  081%=      5-min Rain = 0
KSM1 161135Z 22001KT 02/M01 A3012 RMK A01 T00231007  RH  082%=      5-min Rain = 0
KSM1 161140Z 22000KT 02/M01 A3012 RMK A01 T00231008  RH  081%=      5-min Rain = 0
KSM1 161145Z 00000KT 02/M01 A3012 RMK A01 T00191011  RH  081%=      5-min Rain = 0
KSM1 161150Z 00000KT 02/M01 A3012 RMK A01 T00161010  RH  083%=      5-min Rain = 0
KSM1 161155Z 17001KT 02/M01 A3012 RMK A01 T00161008  RH  085%=      5-min Rain = 0
KSM1 161200Z 14002KT 02/M01 A3012 RMK A01 T00171007  RH  084%=      5-min Rain = 0
KSM1 161205Z 14002KT 02/M01 A3012 RMK A01 T00161009  RH  084%=      5-min Rain = 0
KSM1 161210Z 15002KT 02/M01 A3012 RMK A01 T00161008  RH  085%=      5-min Rain = 0
KSM1 161215Z 16003KT 02/M01 A3012 RMK A01 T00161007  RH  085%=      5-min Rain = 0
KSM1 161220Z 15003KT 02/M01 A3012 RMK A01 T00151008  RH  085%=      5-min Rain = 0
KSM1 161225Z 14003KT 01/M01 A3012 RMK A01 T00141009  RH  085%=      5-min Rain = 0
KSM1 161230Z 14004KT 01/M01 A3012 RMK A01 T00131010  RH  086%=      5-min Rain = 0
KSM1 161235Z 14005KT 01/M01 A3012 RMK A01 T00111011  RH  086%=      5-min Rain = 0
KSM1 161240Z 14004KT 01/M01 A3012 RMK A01 T00091011  RH  087%=      5-min Rain = 0
KSM1 161245Z 14004KT 01/M01 A3012 RMK A01 T00081011  RH  087%=      5-min Rain = 0
KSM1 161250Z 14004KT 01/M01 A3012 RMK A01 T00071013  RH  088%=      5-min Rain = 0
KSM1 161255Z 14004KT 01/M01 A3012 RMK A01 T00051014  RH  088%=      5-min Rain = 0
KSM1 161300Z 14003KT 00/M01 A3012 RMK A01 T00041014  RH  088%=      5-min Rain = 0
KSM1 161305Z 15003KT 00/M01 A3012 RMK A01 T00041014  RH  089%=      5-min Rain = 0
KSM1 161310Z 16003KT 00/M01 A3012 RMK A01 T00041013  RH  089%=      5-min Rain = 0
KSM1 161315Z 16003KT 00/M01 A3013 RMK A01 T00041012  RH  090%=      5-min Rain = 0
KSM1 161320Z 16003KT 01/M01 A3013 RMK A01 T00061010  RH  090%=      5-min Rain = 0
KSM1 161325Z 16004KT 01/M01 A3013 RMK A01 T00061009  RH  090%=      5-min Rain = 0
KSM1 161330Z 16004KT 01/M01 A3013 RMK A01 T00081008  RH  090%=      5-min Rain = 0
KSM1 161335Z 16005KT 01/M01 A3013 RMK A01 T00091007  RH  090%=      5-min Rain = 0
KSM1 161340Z 16005KT 01/M01 A3013 RMK A01 T00111005  RH  090%=      5-min Rain = 0
KSM1 161345Z 16005KT 01/M01 A3013 RMK A01 T00131005  RH  089%=      5-min Rain = 0
KSM1 161350Z 16004KT 01/M00 A3013 RMK A01 T00141004  RH  089%=      5-min Rain = 0
KSM1 161355Z 17004KT 02/M00 A3013 RMK A01 T00151004  RH  088%=      5-min Rain = 0
KSM1 161400Z 18003KT 02/M00 A3013 RMK A01 T00181001  RH  088%=      5-min Rain = 0
KSM1 161405Z 19003KT 02/00 A3013 RMK A01 T00220002  RH  088%=      5-min Rain = 0
KSM1 161410Z 18004KT 03/01 A3013 RMK A01 T00270005  RH  086%=      5-min Rain = 0
KSM1 161415Z 18004KT 03/01 A3013 RMK A01 T00330005  RH  083%=      5-min Rain = 0
KSM1 161420Z 19005KT 04/00 A3013 RMK A01 T00380004  RH  080%=      5-min Rain = 0
KSM1 161425Z 20005KT 04/00 A3013 RMK A01 T00410003  RH  077%=      5-min Rain = 0
KSM1 161430Z 20005KT 04/00 A3013 RMK A01 T00440002  RH  075%=      5-min Rain = 0
KSM1 161435Z 20005KT 05/00 A3013 RMK A01 T00460002  RH  074%=      5-min Rain = 0
KSM1 161440Z 21005KT 05/00 A3013 RMK A01 T00490002  RH  073%=      5-min Rain = 0
KSM1 161445Z 21005KT 05/00 A3013 RMK A01 T00520002  RH  071%=      5-min Rain = 0
KSM1 161450Z 20004KT 05/00 A3013 RMK A01 T00540003  RH  071%=      5-min Rain = 0
KSM1 161455Z 20004KT 06/01 A3013 RMK A01 T00580005  RH  069%=      5-min Rain = 0
KSM1 161500Z 21006KT 06/00 A3013 RMK A01 T00610004  RH  068%=      5-min Rain = 0
KSM1 161505Z 20006KT 06/01 A3013 RMK A01 T00630006  RH  068%=      5-min Rain = 0
KSM1 161510Z 20006KT 07/01 A3013 RMK A01 T00650006  RH  066%=      5-min Rain = 0
KSM1 161515Z 20005KT 07/01 A3013 RMK A01 T00680007  RH  066%=      5-min Rain = 0
KSM1 161520Z 20006KT 07/01 A3013 RMK A01 T00710008  RH  065%=      5-min Rain = 0
KSM1 161525Z 20005KT 07/01 A3012 RMK A01 T00740009  RH  065%=      5-min Rain = 0
KSM1 161530Z 19006KT 08/01 A3012 RMK A01 T00770011  RH  064%=      5-min Rain = 0
KSM1 161535Z 20005KT 08/01 A3012 RMK A01 T00810012  RH  063%=      5-min Rain = 0
KSM1 161540Z 20004KT 08/01 A3012 RMK A01 T00830013  RH  062%=      5-min Rain = 0
KSM1 161545Z 19004KT 09/01 A3012 RMK A01 T00870013  RH  061%=      5-min Rain = 0
KSM1 161550Z 20003KT 09/01 A3012 RMK A01 T00900014  RH  060%=      5-min Rain = 0
KSM1 161555Z 20005KT 09/02 A3012 RMK A01 T00930015  RH  059%=      5-min Rain = 0
KSM1 161600Z 19004KT 10/02 A3012 RMK A01 T00950015  RH  058%=      5-min Rain = 0
KSM1 161605Z 19004KT 10/02 A3012 RMK A01 T00970016  RH  058%=      5-min Rain = 0
KSM1 161610Z 20004KT 10/02 A3012 RMK A01 T01000015  RH  057%=      5-min Rain = 0
KSM1 161615Z 19005KT 10/02 A3012 RMK A01 T01010016  RH  056%=      5-min Rain = 0
KSM1 161620Z 18006KT 10/02 A3012 RMK A01 T01030015  RH  055%=      5-min Rain = 0
KSM1 161625Z 18006KT 11/02 A3012 RMK A01 T01050016  RH  055%=      5-min Rain = 0
KSM1 161630Z 18006KT 11/02 A3012 RMK A01 T01090016  RH  054%=      5-min Rain = 0
KSM1 161635Z 18005KT 11/02 A3012 RMK A01 T01140017  RH  052%=      5-min Rain = 0
KSM1 161640Z 19004KT 12/02 A3012 RMK A01 T01190017  RH  050%=      5-min Rain = 0
KSM1 161645Z 19005KT 12/02 A3012 RMK A01 T01210017  RH  050%=      5-min Rain = 0
KSM1 161650Z 18005KT 12/02 A3012 RMK A01 T01230016  RH  048%=      5-min Rain = 0
KSM1 161655Z 19005KT 12/02 A3012 RMK A01 T01230015  RH  048%=      5-min Rain = 0
KSM1 161700Z 17006KT 12/01 A3011 RMK A01 T01240014  RH  047%=      5-min Rain = 0
KSM1 161705Z 18006KT 13/01 A3011 RMK A01 T01250013  RH  047%=      5-min Rain = 0
KSM1 161710Z 18006KT 13/01 A3011 RMK A01 T01300013  RH  045%=      5-min Rain = 0
KSM1 161715Z 18007KT 13/01 A301 RMK A01 T01310011  RH  045%=      5-min Rain = 0
KSM1 161720Z 18006KT 13/01 A301 RMK A01 T01330011  RH  044%=      5-min Rain = 0
KSM1 161725Z 18006KT 14/01 A301 RMK A01 T01350013  RH  044%=      5-min Rain = 0
KSM1 161730Z 19006KT 14/01 A3009 RMK A01 T01410013  RH  042%=      5-min Rain = 0
KSM1 161735Z 19007KT 14/01 A3009 RMK A01 T01420009  RH  041%=      5-min Rain = 0
KSM1 161740Z 19010KT 15/01 A3009 RMK A01 T01450005  RH  039%=      5-min Rain = 0
KSM1 161745Z 20008KT 14/00 A3009 RMK A01 T01440003  RH  039%=      5-min Rain = 0
KSM1 161750Z 20008KT 14/00 A3009 RMK A01 T01440004  RH  039%=      5-min Rain = 0
KSM1 161755Z 19010KT 15/00 A3008 RMK A01 T01470004  RH  038%=      5-min Rain = 0
KSM1 161800Z 19009KT 15/00 A3008 RMK A01 T01480004  RH  038%=      5-min Rain = 0
KSM1 161805Z 20010KT 15/01 A3008 RMK A01 T01470005  RH  038%=      5-min Rain = 0
KSM1 161810Z 21010G15KT 15/01 A3007 RMK A01 T01470005  RH  038%=      5-min Rain = 0
KSM1 161815Z 21010KT 15/01 A3007 RMK A01 T01480006  RH  038%=      5-min Rain = 0
KSM1 161820Z 21009KT 15/01 A3007 RMK A01 T01480007  RH  039%=      5-min Rain = 0
KSM1 161825Z 21009KT 15/01 A3006 RMK A01 T01530008  RH  038%=      5-min Rain = 0
KSM1 161830Z 20008KT 16/01 A3006 RMK A01 T01600008  RH  036%=      5-min Rain = 0
KSM1 161835Z 20009G15KT 17/01 A3005 RMK A01 T01690007  RH  034%=      5-min Rain = 0
KSM1 161840Z 19010KT 17/01 A3005 RMK A01 T01700007  RH  033%=      5-min Rain = 0
KSM1 161845Z 19010KT 17/01 A3005 RMK A01 T01720008  RH  034%=      5-min Rain = 0
KSM1 161850Z 20010KT 17/01 A3004 RMK A01 T01690006  RH  034%=      5-min Rain = 0
KSM1 161855Z 20010KT 17/01 A3004 RMK A01 T01710007  RH  034%=      5-min Rain = 0
KSM1 161900Z 20009KT 17/01 A3004 RMK A01 T01740006  RH  033%=      5-min Rain = 0
KSM1 161905Z 19011KT 18/00 A3003 RMK A01 T01760002  RH  031%=      5-min Rain = 0
KSM1 161910Z 19011KT 17/M00 A3003 RMK A01 T01731001  RH  031%=      5-min Rain = 0
KSM1 161915Z 20011KT 17/00 A3003 RMK A01 T01730000  RH  031%=      5-min Rain = 0
KSM1 161920Z 21011KT 17/M00 A3003 RMK A01 T01731002  RH  031%=      5-min Rain = 0
KSM1 161925Z 21009KT 18/M00 A3003 RMK A01 T01781001  RH  030%=      5-min Rain = 0
KSM1 161930Z 21011KT 17/M00 A3002 RMK A01 T01741003  RH  030%=      5-min Rain = 0
KSM1 161935Z 20011KT 17/M00 A3002 RMK A01 T01711003  RH  031%=      5-min Rain = 0
KSM1 161940Z 21009KT 17/M00 A3002 RMK A01 T01711002  RH  031%=      5-min Rain = 0
KSM1 161945Z 21010KT 17/M00 A3002 RMK A01 T01701004  RH  031%=      5-min Rain = 0
KSM1 161950Z 21010KT 17/M01 A3002 RMK A01 T01681005  RH  031%=      5-min Rain = 0
KSM1 161955Z 21009KT 17/M01 A3002 RMK A01 T01691005  RH  031%=      5-min Rain = 0
KSM1 162000Z 19011KT 18/M00 A3001 RMK A01 T01791001  RH  030%=      5-min Rain = 0
KSM1 162005Z 19011KT 18/M00 A3001 RMK A01 T01831002  RH  029%=      5-min Rain = 0
KSM1 162010Z 20009KT 18/M00 A3001 RMK A01 T01841003  RH  029%=      5-min Rain = 0
KSM1 162015Z 21010KT 19/M00 A3001 RMK A01 T01851004  RH  028%=      5-min Rain = 0
KSM1 162020Z 21008KT 19/M00 A30 RMK A01 T01871002  RH  028%=      5-min Rain = 0
KSM1 162025Z 19010KT 19/M00 A30 RMK A01 T01861004  RH  028%=      5-min Rain = 0
KSM1 162030Z 21009KT 18/M01 A30 RMK A01 T01831005  RH  028%=      5-min Rain = 0
KSM1 162035Z 20009KT 18/M01 A30 RMK A01 T01801006  RH  029%=      5-min Rain = 0
KSM1 162040Z 20011KT 18/M01 A30 RMK A01 T01811007  RH  028%=      5-min Rain = 0
KSM1 162045Z 21010G15KT 18/M01 A30 RMK A01 T01821005  RH  029%=      5-min Rain = 0
KSM1 162050Z 20011KT 18/M00 A2999 RMK A01 T01831002  RH  029%=      5-min Rain = 0
KSM1 162055Z 19011KT 19/M00 A2999 RMK A01 T01861004  RH  028%=      5-min Rain = 0
KSM1 162100Z 21010KT 19/M01 A2999 RMK A01 T01861005  RH  028%=      5-min Rain = 0
KSM1 162105Z 22008KT 19/M01 A2999 RMK A01 T01851007  RH  028%=      5-min Rain = 0
KSM1 162110Z 21009KT 19/M01 A2999 RMK A01 T01851007  RH  028%=      5-min Rain = 0
KSM1 162115Z 22008KT 18/M01 A2999 RMK A01 T01831005  RH  028%=      5-min Rain = 0
KSM1 162120Z 20007KT 18/M00 A2999 RMK A01 T01841002  RH  029%=      5-min Rain = 0
KSM1 162125Z 19010KT 19/00 A2999 RMK A01 T018500-0  RH  029%=      5-min Rain = 0
KSM1 162130Z 19011KT 19/M00 A2998 RMK A01 T01851001  RH  029%=      5-min Rain = 0
KSM1 162135Z 20010KT 19/M00 A2998 RMK A01 T01851002  RH  029%=      5-min Rain = 0
KSM1 162140Z 19011KT 19/M00 A2998 RMK A01 T01861003  RH  028%=      5-min Rain = 0
KSM1 162145Z 19011KT 19/M00 A2998 RMK A01 T01871003  RH  028%=      5-min Rain = 0
KSM1 162150Z 19010KT 19/M00 A2998 RMK A01 T01891004  RH  027%=      5-min Rain = 0
KSM1 162155Z 21010KT 19/M01 A2998 RMK A01 T01901005  RH  027%=      5-min Rain = 0
KSM1 162200Z 21009G16KT 19/M01 A2998 RMK A01 T01911005  RH  027%=      5-min Rain = 0
KSM1 162205Z 22009KT 19/M01 A2998 RMK A01 T01921006  RH  027%=      5-min Rain = 0
KSM1 162210Z 20010KT 19/M01 A2998 RMK A01 T01911007  RH  026%=      5-min Rain = 0
KSM1 162215Z 19010KT 19/M01 A2998 RMK A01 T01911009  RH  026%=      5-min Rain = 0
KSM1 162220Z 20010KT 19/M01 A2998 RMK A01 T01871009  RH  027%=      5-min Rain = 0
KSM1 162225Z 20009KT 18/M01 A2998 RMK A01 T01811010  RH  028%=      5-min Rain = 0
KSM1 162230Z 21008KT 18/M01 A2998 RMK A01 T01791010  RH  028%=      5-min Rain = 0
KSM1 162235Z 21007KT 18/M01 A2998 RMK A01 T01801008  RH  028%=      5-min Rain = 0
KSM1 162240Z 21006KT 18/M01 A2998 RMK A01 T01801006  RH  028%=      5-min Rain = 0
KSM1 162245Z 21006KT 18/M01 A2998 RMK A01 T01831005  RH  028%=      5-min Rain = 0
KSM1 162250Z 19008KT 18/M00 A2998 RMK A01 T01821004  RH  029%=      5-min Rain = 0
KSM1 162255Z 19010KT 18/M00 A2998 RMK A01 T01801004  RH  029%=      5-min Rain = 0
KSM1 162300Z 19010KT 18/M00 A2999 RMK A01 T01781004  RH  030%=      5-min Rain = 0
KSM1 162305Z 19009KT 17/M00 A2998 RMK A01 T01741003  RH  030%=      5-min Rain = 0
KSM1 162310Z 20009KT 17/M00 A2998 RMK A01 T01721004  RH  031%=      5-min Rain = 0
KSM1 162315Z 20008KT 17/M00 A2998 RMK A01 T01691003  RH  031%=      5-min Rain = 0
KSM1 162320Z 20008KT 17/M00 A2998 RMK A01 T01671003  RH  032%=      5-min Rain = 0
KSM1 162325Z 20008KT 16/M00 A2998 RMK A01 T01641003  RH  032%=      5-min Rain = 0
KSM1 162330Z 20008KT 16/M00 A2998 RMK A01 T01621003  RH  033%=      5-min Rain = 0
KSM1 162335Z 20008KT 16/M00 A2998 RMK A01 T01601002  RH  033%=      5-min Rain = 0
KSM1 162340Z 20007KT 16/M00 A2998 RMK A01 T01581002  RH  034%=      5-min Rain = 0
KSM1 162345Z 20007KT 16/M00 A2998 RMK A01 T01561001  RH  035%=      5-min Rain = 0
KSM1 162350Z 20006KT 15/00 A2998 RMK A01 T01530001  RH  036%=      5-min Rain = 0
KSM1 162355Z 20006KT 15/00 A2998 RMK A01 T01500002  RH  037%=      5-min Rain = 0
KSM1 170000Z 20006KT 15/00 A2998 RMK A01 T01450003  RH  038%=      5-min Rain = 0
KSM1 170005Z 20005KT 14/00 A2998 RMK A01 T01430003  RH  039%=      5-min Rain = 0
KSM1 170010Z 21005KT 14/00 A2999 RMK A01 T01410003  RH  039%=      5-min Rain = 0
KSM1 170015Z 22004KT 14/00 A2999 RMK A01 T01400004  RH  040%=      5-min Rain = 0
KSM1 170020Z 22004KT 14/00 A2999 RMK A01 T01390004  RH  040%=      5-min Rain = 0
KSM1 170025Z 21005KT 14/00 A2999 RMK A01 T01360004  RH  041%=      5-min Rain = 0
KSM1 170030Z 21005KT 14/00 A2999 RMK A01 T01360004  RH  041%=      5-min Rain = 0
KSM1 170035Z 21005KT 14/01 A2999 RMK A01 T01360005  RH  041%=      5-min Rain = 0
KSM1 170040Z 20006KT 13/01 A2999 RMK A01 T01330006  RH  042%=      5-min Rain = 0
KSM1 170045Z 19006KT 13/01 A2999 RMK A01 T01270006  RH  044%=      5-min Rain = 0
KSM1 170050Z 19006KT 12/01 A2998 RMK A01 T01180007  RH  047%=      5-min Rain = 0
KSM1 170055Z 19005KT 12/01 A2998 RMK A01 T01150008  RH  048%=      5-min Rain = 0
KSM1 170100Z 20005KT 12/01 A2999 RMK A01 T01170008  RH  048%=      5-min Rain = 0
KSM1 170105Z 20005KT 12/01 A2999 RMK A01 T01190009  RH  047%=      5-min Rain = 0
KSM1 170110Z 21005KT 12/01 A2999 RMK A01 T01210009  RH  047%=      5-min Rain = 0
KSM1 170115Z 21005KT 13/01 A2999 RMK A01 T01270008  RH  045%=      5-min Rain = 0
KSM1 170120Z 21004KT 13/01 A2999 RMK A01 T01290009  RH  044%=      5-min Rain = 0
KSM1 170125Z 19005G10KT 13/01 A2999 RMK A01 T01290009  RH  044%=      5-min Rain = 0
KSM1 170130Z 18007KT 12/01 A2999 RMK A01 T01200011  RH  048%=      5-min Rain = 0
KSM1 170135Z 17006KT 11/01 A2999 RMK A01 T01120012  RH  051%=      5-min Rain = 0
KSM1 170140Z 18006KT 11/01 A2999 RMK A01 T01050012  RH  053%=      5-min Rain = 0
KSM1 170145Z 18006KT 10/01 A2999 RMK A01 T01010012  RH  055%=      5-min Rain = 0
KSM1 170150Z 18006KT 10/01 A2999 RMK A01 T01020012  RH  054%=      5-min Rain = 0
KSM1 170155Z 18006KT 10/01 A2999 RMK A01 T01000012  RH  055%=      5-min Rain = 0
KSM1 170200Z 18006KT 10/01 A2999 RMK A01 T00970012  RH  056%=      5-min Rain = 0
KSM1 170205Z 18006KT 10/01 A2999 RMK A01 T00950013  RH  057%=      5-min Rain = 0
KSM1 170210Z 18007KT 09/02 A2999 RMK A01 T00930016  RH  059%=      5-min Rain = 0
KSM1 170215Z 19006KT 09/02 A2999 RMK A01 T00930019  RH  061%=      5-min Rain = 0
KSM1 170220Z 19006KT 10/02 A2999 RMK A01 T00970021  RH  060%=      5-min Rain = 0
KSM1 170225Z 19006KT 10/02 A2998 RMK A01 T00990022  RH  060%=      5-min Rain = 0
KSM1 170230Z 19007KT 10/03 A2999 RMK A01 T01040025  RH  059%=      5-min Rain = 0
KSM1 170235Z 19008KT 11/03 A2998 RMK A01 T01100027  RH  058%=      5-min Rain = 0
KSM1 170240Z 18009KT 11/03 A2998 RMK A01 T01120029  RH  057%=      5-min Rain = 0
KSM1 170245Z 18008KT 11/03 A2998 RMK A01 T01110030  RH  058%=      5-min Rain = 0
KSM1 170250Z 19008KT 11/03 A2998 RMK A01 T01110031  RH  059%=      5-min Rain = 0
KSM1 170255Z 18008KT 11/03 A2998 RMK A01 T01110031  RH  059%=      5-min Rain = 0
KSM1 170300Z 18009KT 11/03 A2998 RMK A01 T01090032  RH  060%=      5-min Rain = 0
KSM1 170305Z 18008KT 11/03 A2998 RMK A01 T01080033  RH  061%=      5-min Rain = 0
KSM1 170310Z 18008KT 11/03 A2998 RMK A01 T01060034  RH  062%=      5-min Rain = 0
KSM1 170315Z 18009G14KT 11/04 A2998 RMK A01 T01060035  RH  063%=      5-min Rain = 0
KSM1 170320Z 19008KT 11/04 A2998 RMK A01 T01050036  RH  063%=      5-min Rain = 0
KSM1 170325Z 19009KT 10/04 A2998 RMK A01 T01040035  RH  064%=      5-min Rain = 0
KSM1 170330Z 19009KT 10/03 A2998 RMK A01 T01020034  RH  064%=      5-min Rain = 0
KSM1 170335Z 19009KT 10/03 A2998 RMK A01 T01000034  RH  065%=      5-min Rain = 0
KSM1 170340Z 19009KT 10/04 A2998 RMK A01 T00980035  RH  066%=      5-min Rain = 0
KSM1 170345Z 19008KT 10/04 A2998 RMK A01 T00970035  RH  067%=      5-min Rain = 0
KSM1 170350Z 19008KT 10/04 A2998 RMK A01 T00960036  RH  067%=      5-min Rain = 0
KSM1 170355Z 19007KT 10/04 A2999 RMK A01 T00950036  RH  068%=      5-min Rain = 0
KSM1 170400Z 20007KT 09/04 A2999 RMK A01 T00940036  RH  068%=      5-min Rain = 0
KSM1 170405Z 21006KT 09/04 A2999 RMK A01 T00940036  RH  069%=      5-min Rain = 0
KSM1 170410Z 21006KT 09/04 A2999 RMK A01 T00920037  RH  070%=      5-min Rain = 0
KSM1 170415Z 21006KT 09/04 A2998 RMK A01 T00900036  RH  070%=      5-min Rain = 0
KSM1 170420Z 21006KT 09/04 A2998 RMK A01 T00880036  RH  071%=      5-min Rain = 0
KSM1 170425Z 21006KT 09/04 A2998 RMK A01 T00890037  RH  071%=      5-min Rain = 0
KSM1 170430Z 20007KT 09/04 A2998 RMK A01 T00890037  RH  072%=      5-min Rain = 0
KSM1 170435Z 21006KT 09/04 A2998 RMK A01 T00880037  RH  072%=      5-min Rain = 0
KSM1 170440Z 21006KT 09/04 A2998 RMK A01 T00860036  RH  072%=      5-min Rain = 0
KSM1 170445Z 21006KT 08/04 A2998 RMK A01 T00840036  RH  073%=      5-min Rain = 0
KSM1 170450Z 21007KT 08/04 A2998 RMK A01 T00830036  RH  073%=      5-min Rain = 0
KSM1 170455Z 21006KT 08/04 A2998 RMK A01 T00840036  RH  073%=      5-min Rain = 0
KSM1 170500Z 23004KT 08/04 A2999 RMK A01 T00810035  RH  074%=      5-min Rain = 0
KSM1 170505Z 24004KT 08/03 A2999 RMK A01 T00780033  RH  075%=      5-min Rain = 0
KSM1 170510Z 26004KT 07/03 A2999 RMK A01 T00740031  RH  075%=      5-min Rain = 0
KSM1 170515Z 26003KT 07/03 A2998 RMK A01 T00670026  RH  076%=      5-min Rain = 0
KSM1 170520Z 26004KT 06/02 A2998 RMK A01 T00610024  RH  078%=      5-min Rain = 0
KSM1 170525Z 26004KT 06/02 A2998 RMK A01 T00590023  RH  079%=      5-min Rain = 0
KSM1 170530Z 26005KT 06/02 A2998 RMK A01 T00570022  RH  079%=      5-min Rain = 0
KSM1 170535Z 26005KT 06/02 A2998 RMK A01 T00560021  RH  079%=      5-min Rain = 0
KSM1 170540Z 25005KT 06/02 A2998 RMK A01 T00570021  RH  079%=      5-min Rain = 0
KSM1 170545Z 26006KT 06/02 A2998 RMK A01 T00560021  RH  079%=      5-min Rain = 0
KSM1 170550Z 26006KT 06/02 A2998 RMK A01 T00580023  RH  079%=      5-min Rain = 0
KSM1 170555Z 26006KT 06/02 A2998 RMK A01 T00600024  RH  079%=      5-min Rain = 0

Page generated in 0.029 seconds.